Terminal Aerodrome Forecast
Issued by NWS

Home | Current Version | Previous Version | Text Only | Print | Product List | Glossary On
Versions: 1 2 3 4 5 6 7 8 9 10 11 12 13 14 15 16 17 18 19 20 21 22 23 24
000
FTUS43 KAPX 022340
TAFAPN
TAF
KAPN 022340Z 0300/0324 VRB03KT P6SM -RA VCTS BKN035CB BKN100
     FM030100 VRB03KT 3SM BR BKN120
     FM030500 00000KT 3/4SM BR SCT003 BKN120
     FM031400 10005KT P6SM SCT070 BKN150
     FM031900 10007KT P6SM SHRA OVC035=

USA.gov is the U.S. government's official web portal to all federal, state and local government web resources and services.